Strona główna
METAR-TAF:

METAR-TAF

Lotnisko :

Port lotniczy Southampton

Southampton, Anglia

Szerokość geograficzna: 50-54N, Długość geograficzna: 001-24W, wysokość: 9 m

Aktualna obserwacja pogody

Raport powstał 38 minut temu, godzina 10:50 UTC
Cisza
Temperatura 7°C
Wilgotność 81%
Ciśnienie 1019 hPa
Widzialność 10 km lub więcej
Przerywane chmury na wysokości 2200 ft

METAR: EGHI 271050Z 00000KT 9999 BKN022 07/04 Q1019

czas: 11:28 (11:28 UTC)

Prognoza

Raport powstał 3 godziny i 30 minut temu, godzina 07:58 UTC
Prognoza ważna od 27 godzina 09 UTC do 27 godzina 18 UTC
Wiatr 7 kt od północny wschód
Widzialność 10 km lub więcej
Rozproszone chmury na wysokości 3000 ft
Przejściowo
od 27 godzina 09 UTC do 27 godzina 18 UTC
Widzialność: 8000 m
Przerywane chmury na wysokości 1400 ft
Prawdopodobieństwo 30% :
Przejściowo
od 27 godzina 12 UTC do 27 godzina 18 UTC
Widzialność: 4000 m
Przerywane chmury na wysokości 800 ft
deszcz, mżawka

TAF: EGHI 270758Z 2709/2718 04007KT 9999 SCT030 TEMPO 2709/2718 8000 BKN014 PROB30 TEMPO 2712/2718 4000 RADZ BKN008

Obserwacja i prognoza pogody dla ponad 4000 lotnisk (raport METAR i TAF).

Dostępne stacje oznaczono żółtymi i czerwonymi punktami na mapie.

Najedź kursorem aby zobaczyć nazwę stacji.

Kliknij aby zobaczyć obserwacje i prognozy pogody.

Aby zmienić mapę: kliknij na zielony przycisk z czarnym krzyżykiem, aby powiększyć; na zielony przycisk z myślnikiem, aby pomniejszyć; na zielone strzałki, aby przejść do map sąsiednich.


METAR-TAF: